createdAt,value
2023-03-17T00:01:42.504Z,101616.50
2023-03-17T00:04:13.242Z,101620.25
2023-03-17T00:06:41.635Z,101618.47
2023-03-17T00:09:17.200Z,101616.38
2023-03-17T00:11:45.482Z,101618.75
2023-03-17T00:14:13.026Z,101621.91
2023-03-17T00:16:45.359Z,101628.50
2023-03-17T00:19:17.498Z,101626.91
2023-03-17T00:21:47.217Z,101615.72
2023-03-17T00:24:15.459Z,101623.22
2023-03-17T00:26:43.478Z,101626.47
2023-03-17T00:29:11.124Z,101624.84
2023-03-17T00:31:40.055Z,101625.13
2023-03-17T00:34:12.378Z,101622.91
2023-03-17T00:36:41.127Z,101623.59
2023-03-17T00:41:40.685Z,101620.97
2023-03-17T00:44:08.355Z,101618.31
2023-03-17T00:46:38.306Z,101615.22
2023-03-17T00:49:26.468Z,101619.34
2023-03-17T00:51:54.430Z,101620.03
2023-03-17T00:54:22.927Z,101612.41
2023-03-17T00:56:52.266Z,101608.44
2023-03-17T00:59:46.303Z,101601.16
2023-03-17T01:02:32.631Z,101593.34
2023-03-17T01:05:06.298Z,101591.03
2023-03-17T01:07:35.270Z,101592.16
2023-03-17T01:10:03.219Z,101591.81
2023-03-17T01:12:30.712Z,101592.75
2023-03-17T01:14:58.377Z,101587.38
2023-03-17T01:17:25.922Z,101583.63
2023-03-17T01:19:53.940Z,101587.47
2023-03-17T01:22:21.550Z,101583.28
2023-03-17T01:24:49.170Z,101581.59
2023-03-17T01:27:18.341Z,101582.69
2023-03-17T01:29:45.961Z,101588.84
2023-03-17T01:32:13.611Z,101585.69
2023-03-17T01:34:41.242Z,101578.16
2023-03-17T01:37:10.103Z,101582.69
2023-03-17T01:39:37.652Z,101579.50
2023-03-17T01:42:06.122Z,101585.00
2023-03-17T01:44:33.692Z,101577.56
2023-03-17T01:47:01.332Z,101572.59
2023-03-17T01:49:30.929Z,101575.78
2023-03-17T01:52:10.821Z,101572.50
2023-03-17T01:54:48.642Z,101576.44
2023-03-17T01:57:28.973Z,101573.47
2023-03-17T02:00:00.194Z,101577.53
2023-03-17T02:02:32.641Z,101570.03
2023-03-17T02:05:00.383Z,101566.53
2023-03-17T02:07:28.442Z,101561.81
2023-03-17T02:09:57.202Z,101566.25
2023-03-17T02:12:25.312Z,101565.72
2023-03-17T02:14:52.973Z,101561.47
2023-03-17T02:17:22.588Z,101565.41
2023-03-17T02:19:50.617Z,101564.03
2023-03-17T02:22:18.600Z,101569.94
2023-03-17T02:24:49.119Z,101565.81
2023-03-17T02:27:16.701Z,101569.13
2023-03-17T02:29:46.553Z,101572.53
2023-03-17T02:32:15.091Z,101570.41
2023-03-17T02:34:42.732Z,101572.03
2023-03-17T02:37:10.637Z,101568.47
2023-03-17T02:39:38.173Z,101573.38
2023-03-17T02:42:06.535Z,101569.56
2023-03-17T02:44:35.216Z,101564.19
2023-03-17T02:47:03.534Z,101560.84
2023-03-17T02:49:31.756Z,101556.00
2023-03-17T02:51:59.255Z,101558.81
2023-03-17T02:54:26.958Z,101559.97
2023-03-17T02:56:54.476Z,101564.31
2023-03-17T02:59:22.449Z,101562.03
2023-03-17T03:01:50.988Z,101560.69
2023-03-17T03:04:19.339Z,101560.44
2023-03-17T03:06:47.811Z,101561.03
2023-03-17T03:09:15.587Z,101557.69
2023-03-17T03:11:43.232Z,101559.47
2023-03-17T03:14:11.307Z,101555.69
2023-03-17T03:16:39.089Z,101562.53
2023-03-17T03:19:08.108Z,101556.13
2023-03-17T03:21:37.018Z,101558.47
2023-03-17T03:24:05.656Z,101556.75
2023-03-17T03:26:33.257Z,101561.94
2023-03-17T03:29:01.576Z,101564.53
2023-03-17T03:31:29.232Z,101559.50
2023-03-17T03:33:56.908Z,101566.13
2023-03-17T03:36:25.640Z,101560.53
2023-03-17T03:38:53.202Z,101569.16
2023-03-17T03:41:20.857Z,101566.72
2023-03-17T03:43:48.334Z,101570.41
2023-03-17T03:46:15.991Z,101571.88
2023-03-17T03:48:43.542Z,101568.94
2023-03-17T03:51:11.161Z,101565.81
2023-03-17T03:53:38.708Z,101560.81
2023-03-17T03:56:06.612Z,101577.34
2023-03-17T03:58:34.165Z,101577.41
2023-03-17T04:01:05.470Z,101570.22
2023-03-17T04:03:33.260Z,101573.19
2023-03-17T04:06:00.878Z,101577.78
2023-03-17T04:08:28.531Z,101576.63
2023-03-17T04:10:56.075Z,101577.00
2023-03-17T04:13:23.805Z,101579.63
2023-03-17T04:15:51.900Z,101575.63
2023-03-17T04:18:19.690Z,101579.28
2023-03-17T04:20:47.610Z,101582.69
2023-03-17T04:23:15.214Z,101579.50
2023-03-17T04:25:43.001Z,101584.00
2023-03-17T04:28:11.054Z,101575.69
2023-03-17T04:30:38.706Z,101583.69
2023-03-17T04:33:06.311Z,101584.31
2023-03-17T04:35:33.937Z,101583.44
2023-03-17T04:38:01.812Z,101581.13
2023-03-17T04:40:29.519Z,101584.94
2023-03-17T04:42:57.231Z,101579.88
2023-03-17T04:45:25.686Z,101582.53
2023-03-17T04:47:53.281Z,101575.06
2023-03-17T04:50:21.159Z,101561.91
2023-03-17T04:52:48.860Z,101571.66
2023-03-17T04:55:16.731Z,101570.06
2023-03-17T04:57:44.515Z,101568.94
2023-03-17T05:00:12.878Z,101574.72
2023-03-17T05:02:41.377Z,101565.97
2023-03-17T05:05:08.995Z,101573.88
2023-03-17T05:07:36.711Z,101574.66
2023-03-17T05:10:05.705Z,101580.28
2023-03-17T05:12:33.295Z,101573.66
2023-03-17T05:15:00.880Z,101571.84
2023-03-17T05:17:28.441Z,101567.50
2023-03-17T05:19:55.997Z,101571.72
2023-03-17T05:22:23.677Z,101575.28
2023-03-17T05:24:51.282Z,101574.50
2023-03-17T05:27:18.834Z,101575.22
2023-03-17T05:29:46.394Z,101576.59
2023-03-17T05:32:14.051Z,101572.72
2023-03-17T05:34:41.661Z,101573.44
2023-03-17T05:37:10.755Z,101571.00
2023-03-17T05:39:38.644Z,101565.75
2023-03-17T05:42:06.460Z,101566.13
2023-03-17T05:44:34.391Z,101564.03
2023-03-17T05:47:02.132Z,101563.31
2023-03-17T05:49:29.845Z,101563.47
2023-03-17T05:51:57.542Z,101571.88
2023-03-17T05:54:25.145Z,101569.63
2023-03-17T05:56:52.762Z,101573.50
2023-03-17T05:59:20.854Z,101568.47
2023-03-17T06:01:48.364Z,101569.69
2023-03-17T06:04:16.205Z,101565.22
2023-03-17T06:06:43.947Z,101570.31
2023-03-17T06:09:11.542Z,101566.38
2023-03-17T06:11:39.149Z,101568.97
2023-03-17T06:14:07.471Z,101562.38
2023-03-17T06:16:35.029Z,101566.28
2023-03-17T06:19:02.724Z,101566.72
2023-03-17T06:21:30.253Z,101565.09
2023-03-17T06:23:57.806Z,101567.00
2023-03-17T06:26:25.579Z,101560.09
2023-03-17T06:28:53.166Z,101562.66
2023-03-17T06:31:21.092Z,101559.09
2023-03-17T06:33:48.697Z,101566.53
2023-03-17T06:36:16.231Z,101565.91
2023-03-17T06:38:44.067Z,101564.72
2023-03-17T06:41:11.858Z,101566.69
2023-03-17T06:43:39.511Z,101562.25
2023-03-17T06:46:07.683Z,101563.34
2023-03-17T06:48:35.519Z,101566.19
2023-03-17T06:51:03.248Z,101572.09
2023-03-17T06:53:31.590Z,101571.41
2023-03-17T06:55:59.343Z,101573.34
2023-03-17T06:58:27.090Z,101569.25
2023-03-17T07:00:54.749Z,101564.88
2023-03-17T07:03:24.222Z,101570.00
2023-03-17T07:05:52.417Z,101570.00
2023-03-17T07:08:19.903Z,101568.13
2023-03-17T07:10:47.882Z,101568.09
2023-03-17T07:13:15.501Z,101566.69
2023-03-17T07:15:45.235Z,101559.50
2023-03-17T07:18:13.750Z,101562.53
2023-03-17T07:20:41.759Z,101569.34
2023-03-17T07:23:16.611Z,101574.19
2023-03-17T07:25:46.107Z,101574.59
2023-03-17T07:28:14.050Z,101570.44
2023-03-17T07:30:44.260Z,101574.84
2023-03-17T07:33:11.920Z,101575.81
2023-03-17T07:35:39.693Z,101569.31
2023-03-17T07:38:07.325Z,101568.56
2023-03-17T07:40:35.526Z,101577.75
2023-03-17T07:43:05.129Z,101568.78
2023-03-17T07:45:33.602Z,101571.09
2023-03-17T07:48:01.562Z,101574.09
2023-03-17T07:50:29.272Z,101574.91
2023-03-17T07:52:56.857Z,101573.13
2023-03-17T07:55:24.431Z,101579.78
2023-03-17T07:57:53.321Z,101567.91
2023-03-17T08:00:22.227Z,101573.16
2023-03-17T08:03:06.992Z,101570.06
2023-03-17T08:05:36.869Z,101571.97
2023-03-17T08:08:06.650Z,101562.59
2023-03-17T08:10:34.883Z,101566.84
2023-03-17T08:13:02.741Z,101564.81
2023-03-17T08:15:31.469Z,101564.91
2023-03-17T08:17:59.176Z,101562.84
2023-03-17T08:20:26.833Z,101569.31
2023-03-17T08:22:54.476Z,101570.31
2023-03-17T08:25:23.007Z,101565.00
2023-03-17T08:27:50.897Z,101568.44
2023-03-17T08:30:18.557Z,101566.63
2023-03-17T08:32:46.642Z,101562.66
2023-03-17T08:35:16.271Z,101569.84
2023-03-17T08:37:44.064Z,101561.66
2023-03-17T08:40:13.804Z,101561.31
2023-03-17T08:42:41.470Z,101567.00
2023-03-17T08:45:10.231Z,101564.44
2023-03-17T08:47:38.539Z,101567.00
2023-03-17T08:50:08.931Z,101563.25
2023-03-17T08:52:36.731Z,101561.50
2023-03-17T08:55:04.441Z,101560.63
2023-03-17T08:57:32.231Z,101564.88
2023-03-17T08:59:59.742Z,101564.88
2023-03-17T09:02:28.577Z,101561.75
2023-03-17T09:04:56.833Z,101568.31
2023-03-17T09:07:24.393Z,101561.50
2023-03-17T09:09:51.897Z,101561.25
2023-03-17T09:12:19.414Z,101562.38
2023-03-17T09:14:48.113Z,101570.22
2023-03-17T09:17:16.902Z,101564.63
2023-03-17T09:19:44.855Z,101558.81
2023-03-17T09:22:14.304Z,101558.03
2023-03-17T09:24:42.170Z,101556.44
2023-03-17T09:27:09.682Z,101554.28
2023-03-17T09:29:37.192Z,101550.81
2023-03-17T09:32:04.939Z,101550.34
2023-03-17T09:34:32.984Z,101555.69
2023-03-17T09:37:00.511Z,101547.56
2023-03-17T09:39:28.112Z,101548.53
2023-03-17T09:42:05.172Z,101556.31
2023-03-17T09:44:32.761Z,101552.53
2023-03-17T09:47:04.411Z,101559.69
2023-03-17T09:49:42.874Z,101551.56
2023-03-17T09:52:15.929Z,101550.63
2023-03-17T09:54:45.969Z,101551.47
2023-03-17T09:57:18.322Z,101545.03
2023-03-17T09:59:48.360Z,101553.75
2023-03-17T10:02:22.976Z,101544.19
2023-03-17T10:04:50.940Z,101547.63
2023-03-17T10:07:22.690Z,101542.34
2023-03-17T10:10:01.728Z,101535.28
2023-03-17T10:12:52.339Z,101541.78
2023-03-17T10:15:42.411Z,101535.31
2023-03-17T10:18:14.375Z,101538.50
2023-03-17T10:20:54.634Z,101527.75
2023-03-17T10:23:25.151Z,101529.63
2023-03-17T10:25:53.072Z,101528.53
2023-03-17T10:28:31.910Z,101529.63
2023-03-17T10:31:12.774Z,101527.22
2023-03-17T10:33:40.366Z,101516.13
2023-03-17T10:36:11.014Z,101516.72
2023-03-17T10:38:38.632Z,101521.41
2023-03-17T10:41:07.932Z,101522.84
2023-03-17T10:43:42.330Z,101517.75
2023-03-17T10:46:18.467Z,101504.81
2023-03-17T10:48:52.551Z,101518.16
2023-03-17T10:51:46.562Z,101512.09
2023-03-17T10:54:18.291Z,101505.44
2023-03-17T10:56:49.780Z,101493.06
2023-03-17T10:59:25.975Z,101499.56
2023-03-17T11:01:54.236Z,101493.78
2023-03-17T11:04:44.642Z,101503.94
2023-03-17T11:07:20.653Z,101492.13
2023-03-17T11:09:50.881Z,101496.84
2023-03-17T11:12:24.175Z,101494.28
2023-03-17T11:14:56.375Z,101484.72
2023-03-17T11:17:41.650Z,101490.09
2023-03-17T11:20:27.894Z,101478.97
2023-03-17T11:22:58.547Z,101478.47
2023-03-17T11:25:27.529Z,101476.25
2023-03-17T11:28:12.307Z,101472.56
2023-03-17T11:30:55.905Z,101463.34
2023-03-17T11:33:41.846Z,101470.22
2023-03-17T11:36:34.605Z,101462.31
2023-03-17T11:39:20.957Z,101462.22
2023-03-17T11:41:48.467Z,101453.00
2023-03-17T11:44:30.108Z,101455.78
2023-03-17T11:47:00.645Z,101448.63
2023-03-17T11:49:37.114Z,101441.06
2023-03-17T11:52:11.248Z,101436.88
2023-03-17T11:54:44.879Z,101426.59
2023-03-17T11:57:19.983Z,101427.13
2023-03-17T11:59:54.693Z,101424.16
2023-03-17T12:02:41.176Z,101430.56
2023-03-17T12:05:15.583Z,101417.72
2023-03-17T12:07:53.379Z,101423.06
2023-03-17T12:10:40.760Z,101413.31
2023-03-17T12:13:12.819Z,101405.91
2023-03-17T12:15:43.738Z,101411.00
2023-03-17T12:18:33.083Z,101403.81
2023-03-17T12:21:05.003Z,101405.63
2023-03-17T12:23:32.839Z,101401.59
2023-03-17T12:26:14.403Z,101395.75
2023-03-17T12:29:03.050Z,101391.50
2023-03-17T12:31:32.571Z,101387.50
2023-03-17T12:34:21.097Z,101373.34
2023-03-17T12:36:49.610Z,101373.91
2023-03-17T12:39:28.663Z,101380.63
2023-03-17T12:41:59.910Z,101376.47
2023-03-17T12:44:27.508Z,101371.88
2023-03-17T12:46:55.122Z,101356.56
2023-03-17T12:49:28.841Z,101351.22
2023-03-17T12:52:08.103Z,101355.75
2023-03-17T12:54:37.460Z,101358.44
2023-03-17T12:57:11.151Z,101350.19
2023-03-17T12:59:42.112Z,101336.50
2023-03-17T13:02:18.624Z,101340.59
2023-03-17T13:04:53.761Z,101322.13
2023-03-17T13:07:27.147Z,101324.34
2023-03-17T13:09:54.697Z,101319.34
2023-03-17T13:12:40.383Z,101318.28
2023-03-17T13:15:23.069Z,101310.03
2023-03-17T13:17:50.919Z,101307.47
2023-03-17T13:20:35.974Z,101296.81
2023-03-17T13:23:12.506Z,101300.97
2023-03-17T13:25:41.853Z,101305.31
2023-03-17T13:28:10.481Z,101301.53
2023-03-17T13:30:38.424Z,101302.41
2023-03-17T13:33:10.006Z,101293.50
2023-03-17T13:35:53.909Z,101292.88
2023-03-17T13:38:40.395Z,101289.00
2023-03-17T13:41:20.131Z,101278.56
2023-03-17T13:44:05.664Z,101288.47
2023-03-17T13:46:34.370Z,101274.78
2023-03-17T13:49:21.625Z,101278.25
2023-03-17T13:52:15.818Z,101265.53
2023-03-17T13:55:22.388Z,101271.06
2023-03-17T13:58:16.178Z,101269.44
2023-03-17T14:00:45.432Z,101265.91
2023-03-17T14:03:32.874Z,101275.28
2023-03-17T14:06:03.509Z,101266.66
2023-03-17T14:08:38.776Z,101262.03
2023-03-17T14:11:09.217Z,101261.06
2023-03-17T14:13:56.543Z,101258.81
2023-03-17T14:16:32.396Z,101256.63
2023-03-17T14:19:08.388Z,101251.84
2023-03-17T14:21:36.740Z,101245.53
2023-03-17T14:24:18.134Z,101247.63
2023-03-17T14:26:46.058Z,101240.25
2023-03-17T14:29:15.317Z,101245.75
2023-03-17T14:31:47.185Z,101252.13
2023-03-17T14:34:15.420Z,101243.06
2023-03-17T14:36:43.099Z,101242.47
2023-03-17T14:39:22.077Z,101250.50
2023-03-17T14:42:09.891Z,101240.59
2023-03-17T14:44:38.668Z,101237.78
2023-03-17T14:47:13.107Z,101229.44
2023-03-17T14:49:40.825Z,101233.97
2023-03-17T14:52:17.232Z,101215.91
2023-03-17T14:54:44.903Z,101217.44
2023-03-17T14:57:15.936Z,101233.69
2023-03-17T14:59:44.488Z,101229.00
2023-03-17T15:02:21.001Z,101225.13
2023-03-17T15:05:11.953Z,101220.59
2023-03-17T15:07:42.879Z,101215.25
2023-03-17T15:10:15.958Z,101218.06
2023-03-17T15:12:46.454Z,101222.66
2023-03-17T15:15:26.328Z,101218.34
2023-03-17T15:17:58.146Z,101216.50
2023-03-17T15:20:26.003Z,101223.03
2023-03-17T15:22:56.360Z,101215.28
2023-03-17T15:25:33.264Z,101218.13
2023-03-17T15:28:00.780Z,101213.97
2023-03-17T15:30:37.467Z,101213.59
2023-03-17T15:33:30.691Z,101217.03
2023-03-17T15:36:00.475Z,101205.19
2023-03-17T15:38:28.237Z,101204.47
2023-03-17T15:40:56.179Z,101197.75
2023-03-17T15:43:23.774Z,101201.53
2023-03-17T15:45:54.525Z,101197.59
2023-03-17T15:48:25.800Z,101202.84
2023-03-17T15:50:55.485Z,101204.41
2023-03-17T15:53:23.050Z,101197.97
2023-03-17T15:55:50.661Z,101200.56
2023-03-17T15:58:18.990Z,101201.78
2023-03-17T16:00:50.216Z,101206.50
2023-03-17T16:03:21.316Z,101196.28
2023-03-17T16:05:48.896Z,101199.28
2023-03-17T16:08:18.294Z,101189.81
2023-03-17T16:10:46.515Z,101192.44
2023-03-17T16:13:14.162Z,101186.31
2023-03-17T16:15:43.100Z,101193.09
2023-03-17T16:18:14.020Z,101195.41
2023-03-17T16:20:43.087Z,101186.78
2023-03-17T16:23:28.113Z,101190.53
2023-03-17T16:26:11.750Z,101193.22
2023-03-17T16:28:41.726Z,101191.44
2023-03-17T16:31:16.351Z,101190.59
2023-03-17T16:33:44.025Z,101185.03
2023-03-17T16:36:16.079Z,101188.00
2023-03-17T16:38:44.103Z,101181.84
2023-03-17T16:41:19.563Z,101182.09
2023-03-17T16:43:51.226Z,101185.44
2023-03-17T16:46:20.057Z,101184.44
2023-03-17T16:48:48.696Z,101186.34
2023-03-17T16:51:17.005Z,101186.91
2023-03-17T16:53:45.002Z,101188.19
2023-03-17T16:56:20.314Z,101187.34
2023-03-17T16:58:48.879Z,101183.00
2023-03-17T17:01:24.276Z,101186.22
2023-03-17T17:03:52.229Z,101188.72
2023-03-17T17:06:20.612Z,101186.66
2023-03-17T17:08:49.054Z,101183.28
2023-03-17T17:11:17.710Z,101178.59
2023-03-17T17:13:46.436Z,101189.50
2023-03-17T17:16:27.152Z,101185.44
2023-03-17T17:18:54.931Z,101185.97
2023-03-17T17:21:22.787Z,101188.81
2023-03-17T17:23:52.831Z,101188.25
2023-03-17T17:26:21.409Z,101185.28
2023-03-17T17:28:49.216Z,101191.66
2023-03-17T17:31:17.012Z,101189.13
2023-03-17T17:33:45.318Z,101190.00
2023-03-17T17:36:14.845Z,101193.78
2023-03-17T17:38:42.912Z,101196.19
2023-03-17T17:41:11.285Z,101197.28
2023-03-17T17:43:39.078Z,101202.09
2023-03-17T17:46:11.100Z,101196.47
2023-03-17T17:48:38.793Z,101195.91
2023-03-17T17:51:06.591Z,101192.91
2023-03-17T17:53:34.202Z,101193.06
2023-03-17T17:56:01.773Z,101201.75
2023-03-17T17:58:29.455Z,101200.50
2023-03-17T18:00:57.875Z,101204.41
2023-03-17T18:03:26.729Z,101203.81
2023-03-17T18:05:55.244Z,101196.91
2023-03-17T18:08:23.914Z,101204.47
2023-03-17T18:10:52.361Z,101201.38
2023-03-17T18:13:20.372Z,101200.94
2023-03-17T18:15:48.017Z,101203.22
2023-03-17T18:18:15.618Z,101195.75
2023-03-17T18:20:43.207Z,101196.88
2023-03-17T18:23:11.387Z,101197.94
2023-03-17T18:25:39.056Z,101196.31
2023-03-17T18:28:07.196Z,101196.88
2023-03-17T18:30:35.475Z,101196.19
2023-03-17T18:33:09.476Z,101192.22
2023-03-17T18:35:37.856Z,101202.59
2023-03-17T18:38:05.872Z,101190.00
2023-03-17T18:40:33.944Z,101200.97
2023-03-17T18:43:01.844Z,101203.41
2023-03-17T18:45:29.524Z,101204.41
2023-03-17T18:47:57.163Z,101203.00
2023-03-17T18:50:24.804Z,101204.41
2023-03-17T18:52:52.545Z,101200.78
2023-03-17T18:55:20.557Z,101198.44
2023-03-17T18:57:48.218Z,101203.25
2023-03-17T19:00:17.628Z,101201.03
2023-03-17T19:02:45.838Z,101198.16
2023-03-17T19:05:14.434Z,101200.59
2023-03-17T19:07:42.487Z,101195.00
2023-03-17T19:10:12.385Z,101191.63
2023-03-17T19:12:40.687Z,101190.75
2023-03-17T19:15:09.076Z,101196.94
2023-03-17T19:17:37.186Z,101192.47
2023-03-17T19:20:06.297Z,101196.38
2023-03-17T19:22:35.080Z,101198.59
2023-03-17T19:25:05.058Z,101201.50
2023-03-17T19:27:32.701Z,101206.41
2023-03-17T19:30:00.378Z,101199.63
2023-03-17T19:32:28.056Z,101199.97
2023-03-17T19:34:55.794Z,101191.06
2023-03-17T19:37:23.414Z,101198.13
2023-03-17T19:39:51.237Z,101202.03
2023-03-17T19:42:18.975Z,101204.50
2023-03-17T19:44:46.534Z,101204.50
2023-03-17T19:47:14.138Z,101209.38
2023-03-17T19:49:42.195Z,101208.97
2023-03-17T19:52:09.863Z,101207.66
2023-03-17T19:54:45.979Z,101205.81
2023-03-17T19:57:14.197Z,101212.97
2023-03-17T19:59:41.789Z,101209.72
2023-03-17T20:02:13.337Z,101204.28
2023-03-17T20:04:41.100Z,101213.97
2023-03-17T20:07:09.413Z,101211.41
2023-03-17T20:09:38.107Z,101218.22
2023-03-17T20:12:06.012Z,101207.94
2023-03-17T20:14:33.693Z,101213.97
2023-03-17T20:17:01.289Z,101210.41
2023-03-17T20:19:29.391Z,101211.16
2023-03-17T20:21:58.694Z,101211.50
2023-03-17T20:24:27.317Z,101212.22
2023-03-17T20:26:57.437Z,101209.94
2023-03-17T20:29:26.074Z,101213.41
2023-03-17T20:31:54.447Z,101213.41
2023-03-17T20:34:22.997Z,101210.75
2023-03-17T20:36:51.582Z,101205.31
2023-03-17T20:39:22.037Z,101208.06
2023-03-17T20:41:51.056Z,101214.88
2023-03-17T20:44:19.130Z,101210.41
2023-03-17T20:46:47.786Z,101215.25
2023-03-17T20:49:17.098Z,101214.50
2023-03-17T20:51:46.452Z,101205.06
2023-03-17T20:54:14.270Z,101211.00
2023-03-17T20:56:42.064Z,101202.03
2023-03-17T20:59:11.487Z,101199.69
2023-03-17T21:01:39.246Z,101206.03
2023-03-17T21:04:09.277Z,101209.00
2023-03-17T21:06:37.638Z,101203.03
2023-03-17T21:09:06.144Z,101211.66
2023-03-17T21:11:33.675Z,101209.00
2023-03-17T21:14:03.497Z,101212.34
2023-03-17T21:16:31.286Z,101199.28
2023-03-17T21:18:59.591Z,101203.03
2023-03-17T21:21:27.974Z,101202.88
2023-03-17T21:23:55.978Z,101198.50
2023-03-17T21:26:24.849Z,101195.75
2023-03-17T21:28:52.810Z,101204.19
2023-03-17T21:31:20.532Z,101197.31
2023-03-17T21:33:51.367Z,101200.28
2023-03-17T21:36:21.049Z,101198.47
2023-03-17T21:38:48.597Z,101201.16
2023-03-17T21:41:35.992Z,101197.41
2023-03-17T21:44:04.362Z,101198.72
2023-03-17T21:46:32.782Z,101194.81
2023-03-17T21:49:00.581Z,101199.06
2023-03-17T21:51:28.802Z,101194.06
2023-03-17T21:53:57.862Z,101186.78
2023-03-17T21:56:25.659Z,101184.13
2023-03-17T21:58:53.261Z,101184.94
2023-03-17T22:01:21.955Z,101187.84
2023-03-17T22:03:50.246Z,101178.38
2023-03-17T22:06:19.277Z,101195.63
2023-03-17T22:08:48.208Z,101189.25
2023-03-17T22:11:16.933Z,101188.75
2023-03-17T22:13:44.756Z,101186.03
2023-03-17T22:16:12.843Z,101187.47
2023-03-17T22:18:40.821Z,101180.69
2023-03-17T22:21:10.319Z,101180.97
2023-03-17T22:23:41.691Z,101189.16
2023-03-17T22:26:12.509Z,101185.91
2023-03-17T22:28:40.893Z,101189.16
2023-03-17T22:31:19.262Z,101192.09
2023-03-17T22:33:48.464Z,101184.50
2023-03-17T22:36:16.230Z,101186.19
2023-03-17T22:38:44.034Z,101183.53
2023-03-17T22:41:16.319Z,101181.19
2023-03-17T22:43:44.202Z,101176.66
2023-03-17T22:46:12.124Z,101174.88
2023-03-17T22:48:40.468Z,101178.06
2023-03-17T22:51:09.783Z,101176.59
2023-03-17T22:53:37.918Z,101170.91
2023-03-17T22:56:06.377Z,101175.94
2023-03-17T22:58:34.257Z,101178.09
2023-03-17T23:01:02.749Z,101169.03
2023-03-17T23:03:30.370Z,101174.66
2023-03-17T23:05:59.777Z,101177.34
2023-03-17T23:08:29.547Z,101179.69
2023-03-17T23:10:57.823Z,101173.44
2023-03-17T23:13:25.519Z,101177.25
2023-03-17T23:15:53.100Z,101173.00
2023-03-17T23:18:20.614Z,101166.44
2023-03-17T23:20:48.960Z,101173.84
2023-03-17T23:23:17.614Z,101173.78
2023-03-17T23:25:45.174Z,101169.19
2023-03-17T23:28:13.038Z,101167.25
2023-03-17T23:30:41.782Z,101167.59
2023-03-17T23:33:09.398Z,101167.50
2023-03-17T23:35:37.170Z,101173.22
2023-03-17T23:38:04.813Z,101163.75
2023-03-17T23:40:32.791Z,101162.38
2023-03-17T23:43:00.650Z,101160.47
2023-03-17T23:45:28.412Z,101163.78
2023-03-17T23:47:57.640Z,101166.44
2023-03-17T23:50:25.147Z,101164.41
2023-03-17T23:53:09.890Z,101165.25
2023-03-17T23:55:37.865Z,101163.28
2023-03-17T23:58:05.375Z,101169.97
